createdAt,value
2018-01-12T00:00:30.918Z,98575.95
2018-01-12T00:01:33.858Z,98573.79
2018-01-12T00:02:36.740Z,98576.11
2018-01-12T00:03:39.628Z,98575.32
2018-01-12T00:04:43.066Z,98570.80
2018-01-12T00:05:45.947Z,98574.45
2018-01-12T00:06:48.840Z,98568.27
2018-01-12T00:07:51.771Z,98571.81
2018-01-12T00:08:54.748Z,98568.13
2018-01-12T00:09:57.712Z,98574.54
2018-01-12T00:11:01.106Z,98569.31
2018-01-12T00:12:04.057Z,98573.96
2018-01-12T00:13:07.044Z,98568.69
2018-01-12T00:14:10.007Z,98573.59
2018-01-12T00:15:13.036Z,98572.27
2018-01-12T00:16:15.914Z,98565.78
2018-01-12T00:17:19.342Z,98565.77
2018-01-12T00:18:22.267Z,98574.91
2018-01-12T00:19:25.289Z,98568.35
2018-01-12T00:20:28.234Z,98572.39
2018-01-12T00:21:31.207Z,98572.78
2018-01-12T00:22:34.172Z,98571.03
2018-01-12T00:23:37.682Z,98573.50
2018-01-12T00:24:40.604Z,98570.16
2018-01-12T00:25:43.686Z,98575.59
2018-01-12T00:26:46.647Z,98575.80
2018-01-12T00:27:49.624Z,98573.88
2018-01-12T00:28:52.548Z,98583.70
2018-01-12T00:29:56.693Z,98581.77
2018-01-12T00:30:59.593Z,98581.40
2018-01-12T00:32:02.480Z,98577.70
2018-01-12T00:33:05.363Z,98589.89
2018-01-12T00:34:08.215Z,98581.00
2018-01-12T00:35:11.079Z,98579.08
2018-01-12T00:36:14.048Z,98590.70
2018-01-12T00:37:17.006Z,98589.16
2018-01-12T00:38:20.000Z,98588.20
2018-01-12T00:39:23.096Z,98588.61
2018-01-12T00:40:26.172Z,98592.95
2018-01-12T00:41:29.215Z,98587.10
2018-01-12T00:42:32.712Z,98590.22
2018-01-12T00:43:35.657Z,98589.75
2018-01-12T00:44:38.806Z,98596.53
2018-01-12T00:45:41.864Z,98596.92
2018-01-12T00:46:44.947Z,98599.53
2018-01-12T00:47:47.893Z,98600.74
2018-01-12T00:48:51.398Z,98595.16
2018-01-12T00:49:54.474Z,98597.29
2018-01-12T00:50:57.553Z,98604.06
2018-01-12T00:52:00.665Z,98598.83
2018-01-12T00:53:03.710Z,98603.88
2018-01-12T00:54:06.824Z,98608.72
2018-01-12T00:55:10.422Z,98607.36
2018-01-12T00:56:13.547Z,98603.20
2018-01-12T00:57:16.622Z,98603.41
2018-01-12T00:58:19.680Z,98602.00
2018-01-12T00:59:22.736Z,98605.30
2018-01-12T01:00:25.680Z,98603.02
2018-01-12T01:01:28.974Z,98606.92
2018-01-12T01:02:31.917Z,98606.56
2018-01-12T01:03:34.871Z,98607.55
2018-01-12T01:04:37.787Z,98610.59
2018-01-12T01:05:40.712Z,98608.13
2018-01-12T01:06:43.618Z,98608.17
2018-01-12T01:07:46.860Z,98614.62
2018-01-12T01:08:49.855Z,98614.79
2018-01-12T01:09:52.762Z,98614.17
2018-01-12T01:10:55.773Z,98613.13
2018-01-12T01:11:58.661Z,98614.27
2018-01-12T01:13:01.579Z,98624.73
2018-01-12T01:14:04.840Z,98623.35
2018-01-12T01:15:07.631Z,98619.33
2018-01-12T01:16:10.440Z,98624.89
2018-01-12T01:17:13.249Z,98626.66
2018-01-12T01:18:16.091Z,98623.96
2018-01-12T01:19:18.923Z,98626.14
2018-01-12T01:20:22.254Z,98629.23
2018-01-12T01:21:25.177Z,98636.22
2018-01-12T01:22:28.100Z,98631.02
2018-01-12T01:23:31.050Z,98627.52
2018-01-12T01:24:33.972Z,98631.92
2018-01-12T01:25:36.913Z,98630.59
2018-01-12T01:26:40.340Z,98634.30
2018-01-12T01:27:43.270Z,98628.66
2018-01-12T01:28:46.181Z,98632.78
2018-01-12T01:29:49.078Z,98634.95
2018-01-12T01:30:52.019Z,98635.54
2018-01-12T01:31:54.919Z,98642.02
2018-01-12T01:32:58.188Z,98637.77
2018-01-12T01:34:01.135Z,98641.86
2018-01-12T01:35:04.018Z,98645.36
2018-01-12T01:36:06.961Z,98636.48
2018-01-12T01:37:09.935Z,98637.04
2018-01-12T01:38:12.853Z,98635.63
2018-01-12T01:39:16.206Z,98629.08
2018-01-12T01:40:19.122Z,98638.23
2018-01-12T01:41:22.114Z,98638.74
2018-01-12T01:42:25.118Z,98642.03
2018-01-12T01:43:28.057Z,98646.61
2018-01-12T01:44:30.960Z,98650.52
2018-01-12T01:45:34.289Z,98647.86
2018-01-12T01:46:37.249Z,98647.67
2018-01-12T01:47:40.169Z,98650.77
2018-01-12T01:48:43.109Z,98650.37
2018-01-12T01:49:46.026Z,98647.45
2018-01-12T01:50:48.975Z,98646.28
2018-01-12T01:51:52.445Z,98641.75
2018-01-12T01:52:55.378Z,98642.35
2018-01-12T01:53:58.424Z,98647.03
2018-01-12T01:55:01.334Z,98649.61
2018-01-12T01:56:04.246Z,98646.56
2018-01-12T01:57:07.196Z,98654.88
2018-01-12T01:58:10.614Z,98649.64
2018-01-12T01:59:13.533Z,98645.81
2018-01-12T02:00:16.435Z,98649.70
2018-01-12T02:01:19.368Z,98644.83
2018-01-12T02:02:22.277Z,98651.48
2018-01-12T02:03:25.202Z,98645.11
2018-01-12T02:04:28.450Z,98643.77
2018-01-12T02:05:31.354Z,98648.56
2018-01-12T02:06:34.248Z,98651.40
2018-01-12T02:07:37.163Z,98647.34
2018-01-12T02:08:40.139Z,98653.97
2018-01-12T02:09:43.030Z,98650.34
2018-01-12T02:10:45.950Z,98647.41
2018-01-12T02:11:48.917Z,98649.71
2018-01-12T02:12:51.835Z,98649.69
2018-01-12T02:13:54.808Z,98651.23
2018-01-12T02:14:57.722Z,98652.77
2018-01-12T02:16:00.647Z,98649.90
2018-01-12T02:17:03.981Z,98653.66
2018-01-12T02:18:06.923Z,98660.63
2018-01-12T02:19:09.824Z,98655.00
2018-01-12T02:20:12.731Z,98654.63
2018-01-12T02:21:15.718Z,98656.78
2018-01-12T02:22:18.856Z,98656.02
2018-01-12T02:23:22.217Z,98657.33
2018-01-12T02:24:25.825Z,98652.22
2018-01-12T02:25:28.821Z,98660.81
2018-01-12T02:26:31.725Z,98654.00
2018-01-12T02:27:34.613Z,98658.09
2018-01-12T02:28:37.568Z,98660.44
2018-01-12T02:29:40.900Z,98660.02
2018-01-12T02:30:43.864Z,98656.12
2018-01-12T02:31:46.742Z,98654.95
2018-01-12T02:32:49.707Z,98655.52
2018-01-12T02:33:52.644Z,98655.72
2018-01-12T02:34:55.561Z,98651.41
2018-01-12T02:35:58.951Z,98659.05
2018-01-12T02:37:01.861Z,98657.16
2018-01-12T02:38:05.950Z,98651.86
2018-01-12T02:39:08.873Z,98654.16
2018-01-12T02:40:11.892Z,98649.51
2018-01-12T02:41:14.884Z,98655.67
2018-01-12T02:42:18.246Z,98654.53
2018-01-12T02:43:21.181Z,98660.14
2018-01-12T02:44:24.141Z,98660.00
2018-01-12T02:45:27.034Z,98660.98
2018-01-12T02:46:29.937Z,98661.31
2018-01-12T02:47:32.841Z,98658.60
2018-01-12T02:48:36.348Z,98659.67
2018-01-12T02:49:39.258Z,98659.45
2018-01-12T02:50:42.184Z,98655.23
2018-01-12T02:51:45.082Z,98657.80
2018-01-12T02:52:48.039Z,98655.48
2018-01-12T02:53:50.982Z,98663.08
2018-01-12T02:54:54.432Z,98661.31
2018-01-12T02:55:57.342Z,98659.37
2018-01-12T02:57:00.278Z,98663.25
2018-01-12T02:58:03.218Z,98661.28
2018-01-12T02:59:06.184Z,98665.19
2018-01-12T03:00:09.082Z,98662.86
2018-01-12T03:01:12.494Z,98663.06
2018-01-12T03:02:15.424Z,98663.88
2018-01-12T03:03:18.378Z,98667.76
2018-01-12T03:04:21.313Z,98663.56
2018-01-12T03:05:24.716Z,98668.27
2018-01-12T03:06:27.561Z,98664.60
2018-01-12T03:07:30.896Z,98667.98
2018-01-12T03:08:33.805Z,98672.07
2018-01-12T03:09:36.736Z,98671.70
2018-01-12T03:10:39.656Z,98677.16
2018-01-12T03:11:42.594Z,98673.08
2018-01-12T03:12:45.505Z,98673.98
2018-01-12T03:13:48.750Z,98681.55
2018-01-12T03:14:51.682Z,98672.62
2018-01-12T03:15:54.579Z,98682.33
2018-01-12T03:16:57.378Z,98683.70
2018-01-12T03:18:00.202Z,98678.51
2018-01-12T03:19:03.042Z,98676.38
2018-01-12T03:20:06.283Z,98680.47
2018-01-12T03:21:09.098Z,98683.45
2018-01-12T03:22:11.932Z,98681.08
2018-01-12T03:23:14.851Z,98684.06
2018-01-12T03:24:17.663Z,98681.74
2018-01-12T03:25:20.479Z,98677.67
2018-01-12T03:26:23.815Z,98681.73
2018-01-12T03:27:26.766Z,98682.37
2018-01-12T03:28:29.726Z,98685.88
2018-01-12T03:29:32.622Z,98685.73
2018-01-12T03:30:35.602Z,98685.94
2018-01-12T03:31:38.505Z,98686.27
2018-01-12T03:32:41.984Z,98686.22
2018-01-12T03:33:45.250Z,98683.53
2018-01-12T03:34:48.192Z,98691.34
2018-01-12T03:35:51.216Z,98683.22
2018-01-12T03:36:54.114Z,98683.20
2018-01-12T03:37:57.084Z,98685.69
2018-01-12T03:39:00.376Z,98687.25
2018-01-12T03:40:03.317Z,98681.65
2018-01-12T03:41:06.304Z,98683.81
2018-01-12T03:42:09.202Z,98682.41
2018-01-12T03:43:12.161Z,98682.98
2018-01-12T03:44:15.157Z,98684.54
2018-01-12T03:45:18.077Z,98685.84
2018-01-12T03:46:20.999Z,98683.14
2018-01-12T03:47:23.910Z,98691.25
2018-01-12T03:48:26.865Z,98682.33
2018-01-12T03:49:29.841Z,98688.35
2018-01-12T03:50:32.758Z,98682.73
2018-01-12T03:51:35.960Z,98693.61
2018-01-12T03:52:38.874Z,98691.83
2018-01-12T03:53:41.855Z,98688.72
2018-01-12T03:54:44.761Z,98688.48
2018-01-12T03:55:47.687Z,98689.68
2018-01-12T03:56:50.601Z,98692.63
2018-01-12T03:57:53.888Z,98693.17
2018-01-12T03:58:56.796Z,98686.84
2018-01-12T03:59:59.714Z,98691.25
2018-01-12T04:01:03.320Z,98694.87
2018-01-12T04:02:06.272Z,98693.48
2018-01-12T04:03:09.199Z,98687.86
2018-01-12T04:04:12.493Z,98697.56
2018-01-12T04:05:15.423Z,98689.23
2018-01-12T04:06:18.414Z,98700.23
2018-01-12T04:07:21.346Z,98694.95
2018-01-12T04:08:24.307Z,98704.91
2018-01-12T04:09:27.256Z,98695.80
2018-01-12T04:10:30.550Z,98699.17
2018-01-12T04:11:33.452Z,98699.09
2018-01-12T04:12:36.590Z,98695.02
2018-01-12T04:13:39.485Z,98700.07
2018-01-12T04:14:42.378Z,98693.88
2018-01-12T04:15:45.385Z,98700.34
2018-01-12T04:16:48.701Z,98702.91
2018-01-12T04:17:51.639Z,98706.80
2018-01-12T04:18:54.553Z,98699.02
2018-01-12T04:19:57.468Z,98701.92
2018-01-12T04:21:00.404Z,98702.28
2018-01-12T04:22:03.349Z,98710.47
2018-01-12T04:23:06.598Z,98711.83
2018-01-12T04:24:09.535Z,98703.34
2018-01-12T04:25:12.554Z,98705.06
2018-01-12T04:26:15.493Z,98707.03
2018-01-12T04:27:18.434Z,98702.73
2018-01-12T04:28:21.387Z,98706.55
2018-01-12T04:29:24.668Z,98704.58
2018-01-12T04:30:27.676Z,98706.55
2018-01-12T04:31:30.583Z,98709.28
2018-01-12T04:32:33.492Z,98708.14
2018-01-12T04:33:36.427Z,98708.03
2018-01-12T04:34:39.338Z,98703.92
2018-01-12T04:35:42.727Z,98708.96
2018-01-12T04:36:45.650Z,98712.64
2018-01-12T04:37:48.608Z,98709.22
2018-01-12T04:38:51.477Z,98704.73
2018-01-12T04:39:54.429Z,98711.94
2018-01-12T04:40:57.347Z,98708.23
2018-01-12T04:42:00.790Z,98702.29
2018-01-12T04:43:03.687Z,98708.50
2018-01-12T04:44:06.685Z,98710.02
2018-01-12T04:45:09.654Z,98708.19
2018-01-12T04:46:12.645Z,98702.00
2018-01-12T04:47:15.566Z,98707.44
2018-01-12T04:48:18.782Z,98708.83
2018-01-12T04:49:21.685Z,98710.50
2018-01-12T04:50:24.573Z,98709.64
2018-01-12T04:51:27.477Z,98708.58
2018-01-12T04:52:30.375Z,98708.61
2018-01-12T04:53:33.972Z,98708.73
2018-01-12T04:54:37.251Z,98709.95
2018-01-12T04:55:40.171Z,98706.72
2018-01-12T04:56:43.058Z,98705.01
2018-01-12T04:57:46.006Z,98710.98
2018-01-12T04:58:48.947Z,98707.67
2018-01-12T04:59:51.895Z,98708.38
2018-01-12T05:00:55.122Z,98707.42
2018-01-12T05:01:58.018Z,98708.62
2018-01-12T05:03:00.920Z,98713.50
2018-01-12T05:04:03.837Z,98708.39
2018-01-12T05:05:06.768Z,98710.37
2018-01-12T05:06:09.682Z,98715.67
2018-01-12T05:07:12.985Z,98704.66
2018-01-12T05:08:15.898Z,98708.33
2018-01-12T05:09:18.844Z,98715.95
2018-01-12T05:10:21.743Z,98708.08
2018-01-12T05:11:24.667Z,98710.63
2018-01-12T05:12:28.585Z,98713.37
2018-01-12T05:13:31.875Z,98710.69
2018-01-12T05:14:34.822Z,98711.08
2018-01-12T05:15:37.750Z,98707.16
2018-01-12T05:16:40.667Z,98707.02
2018-01-12T05:17:43.523Z,98707.20
2018-01-12T05:18:46.466Z,98713.82
2018-01-12T05:19:49.292Z,98717.28
2018-01-12T05:20:52.264Z,98711.22
2018-01-12T05:21:55.152Z,98713.93
2018-01-12T05:22:58.070Z,98714.72
2018-01-12T05:24:00.908Z,98720.88
2018-01-12T05:25:03.747Z,98720.46
2018-01-12T05:26:06.899Z,98714.69
2018-01-12T05:27:09.832Z,98718.80
2018-01-12T05:28:12.679Z,98717.20
2018-01-12T05:29:15.526Z,98720.83
2018-01-12T05:30:18.496Z,98717.77
2018-01-12T05:31:21.458Z,98717.20
2018-01-12T05:32:27.224Z,98717.98
2018-01-12T05:33:30.139Z,98718.84
2018-01-12T05:34:33.097Z,98719.48
2018-01-12T05:35:36.011Z,98724.66
2018-01-12T05:36:38.947Z,98727.85
2018-01-12T05:37:41.912Z,98725.31
2018-01-12T05:38:45.417Z,98729.71
2018-01-12T05:39:48.322Z,98722.80
2018-01-12T05:40:51.226Z,98726.15
2018-01-12T05:41:54.137Z,98723.20
2018-01-12T05:42:57.031Z,98718.73
2018-01-12T05:43:59.917Z,98724.38
2018-01-12T05:45:02.916Z,98720.66
2018-01-12T05:46:05.818Z,98723.17
2018-01-12T05:47:08.750Z,98723.79
2018-01-12T05:48:11.680Z,98720.91
2018-01-12T05:49:14.589Z,98720.37
2018-01-12T05:50:17.973Z,98720.57
2018-01-12T05:51:20.962Z,98727.02
2018-01-12T05:52:23.897Z,98724.17
2018-01-12T05:53:26.884Z,98723.64
2018-01-12T05:54:29.793Z,98725.05
2018-01-12T05:55:32.760Z,98712.06
2018-01-12T05:56:36.042Z,98719.83
2018-01-12T05:57:38.958Z,98715.38
2018-01-12T05:58:41.866Z,98718.09
2018-01-12T05:59:44.800Z,98715.95
2018-01-12T06:00:47.896Z,98722.41
2018-01-12T06:01:50.846Z,98720.16
2018-01-12T06:02:54.053Z,98720.98
2018-01-12T06:03:56.973Z,98720.16
2018-01-12T06:04:59.856Z,98720.18
2018-01-12T06:06:02.812Z,98721.27
2018-01-12T06:07:05.748Z,98723.06
2018-01-12T06:08:08.982Z,98721.52
2018-01-12T06:09:12.311Z,98724.77
2018-01-12T06:10:15.135Z,98723.98
2018-01-12T06:11:18.146Z,98729.90
2018-01-12T06:12:21.089Z,98734.24
2018-01-12T06:13:23.987Z,98734.66
2018-01-12T06:14:26.932Z,98732.50
2018-01-12T06:15:30.250Z,98737.55
2018-01-12T06:16:33.159Z,98729.20
2018-01-12T06:17:36.111Z,98734.06
2018-01-12T06:18:39.014Z,98732.48
2018-01-12T06:19:41.984Z,98734.65
2018-01-12T06:20:44.927Z,98732.62
2018-01-12T06:21:48.252Z,98728.80
2018-01-12T06:22:51.107Z,98737.75
2018-01-12T06:23:53.947Z,98736.00
2018-01-12T06:24:56.799Z,98732.93
2018-01-12T06:25:59.652Z,98736.81
2018-01-12T06:27:02.487Z,98734.45
2018-01-12T06:28:05.610Z,98736.94
2018-01-12T06:29:08.552Z,98734.45
2018-01-12T06:30:11.530Z,98730.83
2018-01-12T06:31:14.448Z,98733.00
2018-01-12T06:32:17.343Z,98730.84
2018-01-12T06:33:20.203Z,98730.06
2018-01-12T06:34:23.180Z,98728.16
2018-01-12T06:35:26.102Z,98728.73
2018-01-12T06:36:29.079Z,98731.61
2018-01-12T06:37:31.981Z,98732.95
2018-01-12T06:38:35.032Z,98727.86
2018-01-12T06:39:38.366Z,98733.08
2018-01-12T06:40:41.395Z,98732.50
2018-01-12T06:41:44.292Z,98731.93
2018-01-12T06:42:47.255Z,98737.11
2018-01-12T06:43:50.202Z,98739.47
2018-01-12T06:44:53.236Z,98740.59
2018-01-12T06:45:56.499Z,98739.86
2018-01-12T06:46:59.343Z,98739.84
2018-01-12T06:48:02.251Z,98739.67
2018-01-12T06:49:05.246Z,98739.09
2018-01-12T06:50:08.174Z,98745.75
2018-01-12T06:51:11.222Z,98746.13
2018-01-12T06:52:14.473Z,98753.00
2018-01-12T06:53:17.551Z,98750.33
2018-01-12T06:54:20.440Z,98749.00
2018-01-12T06:55:23.310Z,98752.47
2018-01-12T06:56:26.254Z,98753.44
2018-01-12T06:57:29.601Z,98756.34
2018-01-12T06:58:32.796Z,98759.41
2018-01-12T06:59:37.815Z,98756.31
2018-01-12T07:00:40.676Z,98758.02
2018-01-12T07:01:43.633Z,98757.38
2018-01-12T07:02:46.616Z,98760.05
2018-01-12T07:03:50.175Z,98764.35
2018-01-12T07:04:53.475Z,98769.67
2018-01-12T07:05:56.537Z,98766.04
2018-01-12T07:06:59.807Z,98766.04
2018-01-12T07:08:03.128Z,98767.00
2018-01-12T07:09:06.697Z,98768.89
2018-01-12T07:10:09.606Z,98771.59
2018-01-12T07:11:12.982Z,98771.91
2018-01-12T07:12:15.959Z,98771.63
2018-01-12T07:13:18.915Z,98772.84
2018-01-12T07:14:21.899Z,98776.78
2018-01-12T07:15:24.962Z,98772.75
2018-01-12T07:16:27.875Z,98777.12
2018-01-12T07:17:31.173Z,98775.11
2018-01-12T07:18:34.129Z,98777.62
2018-01-12T07:19:37.127Z,98781.52
2018-01-12T07:20:40.181Z,98778.23
2018-01-12T07:21:43.154Z,98779.88
2018-01-12T07:22:46.086Z,98775.80
2018-01-12T07:23:49.354Z,98780.44
2018-01-12T07:24:52.205Z,98781.20
2018-01-12T07:25:55.063Z,98781.71
2018-01-12T07:26:58.824Z,98784.43
2018-01-12T07:28:01.705Z,98783.09
2018-01-12T07:29:04.555Z,98789.47
2018-01-12T07:30:07.784Z,98789.97
2018-01-12T07:31:10.658Z,98796.36
2018-01-12T07:32:13.567Z,98792.25
2018-01-12T07:33:16.505Z,98793.23
2018-01-12T07:34:19.540Z,98791.13
2018-01-12T07:35:22.453Z,98796.34
2018-01-12T07:36:25.895Z,98797.43
2018-01-12T07:37:28.837Z,98796.25
2018-01-12T07:38:31.738Z,98797.45
2018-01-12T07:39:34.645Z,98798.67
2018-01-12T07:40:37.679Z,98805.00
2018-01-12T07:41:40.981Z,98802.31
2018-01-12T07:42:43.925Z,98803.44
2018-01-12T07:43:46.858Z,98805.92
2018-01-12T07:44:49.787Z,98803.44
2018-01-12T07:45:52.696Z,98805.77
2018-01-12T07:46:55.585Z,98807.88
2018-01-12T07:47:58.537Z,98815.81
2018-01-12T07:49:01.892Z,98812.34
2018-01-12T07:50:04.818Z,98809.05
2018-01-12T07:51:07.804Z,98807.72
2018-01-12T07:52:10.721Z,98812.58
2018-01-12T07:53:17.689Z,98810.89
2018-01-12T07:54:20.677Z,98809.73
2018-01-12T07:55:23.973Z,98810.69
2018-01-12T07:56:26.890Z,98807.59
2018-01-12T07:57:29.888Z,98808.20
2018-01-12T07:58:32.776Z,98807.64
2018-01-12T07:59:35.678Z,98806.09
2018-01-12T08:00:42.516Z,98814.05
2018-01-12T08:01:49.796Z,98816.03
2018-01-12T08:03:06.766Z,98816.32
2018-01-12T08:04:09.713Z,98816.48
2018-01-12T08:05:12.679Z,98817.39
2018-01-12T08:06:15.625Z,98821.45
2018-01-12T08:07:18.595Z,98819.14
2018-01-12T08:08:21.820Z,98822.81
2018-01-12T08:09:24.762Z,98824.27
2018-01-12T08:10:27.739Z,98828.84
2018-01-12T08:11:30.655Z,98831.39
2018-01-12T08:12:33.567Z,98831.31
2018-01-12T08:13:36.565Z,98835.63
2018-01-12T08:14:39.997Z,98834.13
2018-01-12T08:15:42.917Z,98833.38
2018-01-12T08:16:45.896Z,98838.97
2018-01-12T08:17:48.899Z,98837.03
2018-01-12T08:18:51.793Z,98838.66
2018-01-12T08:19:54.709Z,98838.88
2018-01-12T08:20:58.100Z,98840.40
2018-01-12T08:22:01.318Z,98834.99
2018-01-12T08:23:04.253Z,98833.91
2018-01-12T08:24:07.184Z,98835.53
2018-01-12T08:25:10.110Z,98831.25
2018-01-12T08:26:13.069Z,98833.11
2018-01-12T08:27:16.268Z,98830.91
2018-01-12T08:28:19.228Z,98837.30
2018-01-12T08:29:22.147Z,98825.31
2018-01-12T08:30:25.045Z,98827.20
2018-01-12T08:31:28.000Z,98830.60
2018-01-12T08:32:30.928Z,98828.97
2018-01-12T08:33:34.123Z,98837.70
2018-01-12T08:34:37.099Z,98830.59
2018-01-12T08:35:40.106Z,98827.48
2018-01-12T08:36:43.028Z,98835.16
2018-01-12T08:37:45.966Z,98832.78
2018-01-12T08:38:48.872Z,98834.80
2018-01-12T08:39:52.266Z,98835.48
2018-01-12T08:40:55.204Z,98834.78
2018-01-12T08:41:58.123Z,98840.11
2018-01-12T08:43:01.054Z,98844.63
2018-01-12T08:44:04.564Z,98843.36
2018-01-12T08:45:07.476Z,98842.87
2018-01-12T08:46:10.706Z,98835.98
2018-01-12T08:47:13.609Z,98844.63
2018-01-12T08:48:16.507Z,98841.69
2018-01-12T08:49:19.330Z,98840.72
2018-01-12T08:50:22.290Z,98845.51
2018-01-12T08:51:25.237Z,98851.95
2018-01-12T08:52:28.705Z,98854.81
2018-01-12T08:53:31.711Z,98853.96
2018-01-12T08:54:35.031Z,98856.77
2018-01-12T08:55:37.949Z,98859.88
2018-01-12T08:56:41.478Z,98855.93
2018-01-12T08:57:44.406Z,98862.88
2018-01-12T08:58:47.705Z,98860.09
2018-01-12T08:59:50.572Z,98859.75
2018-01-12T09:00:53.543Z,98861.16
2018-01-12T09:01:56.489Z,98870.34
2018-01-12T09:02:59.834Z,98875.27
2018-01-12T09:04:02.875Z,98875.19
2018-01-12T09:05:06.253Z,98875.41
2018-01-12T09:06:09.241Z,98882.30
2018-01-12T09:07:12.180Z,98880.87
2018-01-12T09:08:15.190Z,98884.69
2018-01-12T09:09:18.111Z,98888.17
2018-01-12T09:10:20.990Z,98884.56
2018-01-12T09:11:24.644Z,98887.86
2018-01-12T09:12:27.665Z,98879.29
2018-01-12T09:13:30.604Z,98887.04
2018-01-12T09:14:33.534Z,98883.75
2018-01-12T09:15:36.506Z,98890.03
2018-01-12T09:16:39.467Z,98893.56
2018-01-12T09:17:42.411Z,98894.27
2018-01-12T09:18:45.264Z,98901.29
2018-01-12T09:19:48.147Z,98901.27
2018-01-12T09:20:51.179Z,98901.90
2018-01-12T09:21:54.073Z,98901.56
2018-01-12T09:22:57.240Z,98905.81
2018-01-12T09:24:00.165Z,98906.01
2018-01-12T09:25:03.076Z,98904.88
2018-01-12T09:26:06.005Z,98905.77
2018-01-12T09:27:09.025Z,98906.89
2018-01-12T09:28:12.301Z,98907.23
2018-01-12T09:29:15.237Z,98902.98
2018-01-12T09:30:18.199Z,98908.90
2018-01-12T09:31:21.197Z,98908.66
2018-01-12T09:32:24.108Z,98911.30
2018-01-12T09:33:27.055Z,98909.82
2018-01-12T09:34:30.287Z,98914.75
2018-01-12T09:35:33.262Z,98911.81
2018-01-12T09:36:36.174Z,98915.52
2018-01-12T09:37:39.114Z,98921.23
2018-01-12T09:38:42.084Z,98916.41
2018-01-12T09:39:45.020Z,98922.72
2018-01-12T09:40:48.406Z,98923.31
2018-01-12T09:41:51.402Z,98917.16
2018-01-12T09:42:54.422Z,98923.11
2018-01-12T09:43:57.424Z,98923.80
2018-01-12T09:45:00.444Z,98920.35
2018-01-12T09:46:03.474Z,98915.70
2018-01-12T09:47:06.678Z,98920.39
2018-01-12T09:48:09.711Z,98924.28
2018-01-12T09:49:12.712Z,98919.91
2018-01-12T09:50:15.800Z,98919.16
2018-01-12T09:51:18.781Z,98918.06
2018-01-12T09:52:21.822Z,98925.62
2018-01-12T09:53:25.221Z,98923.73
2018-01-12T09:54:29.193Z,98924.34
2018-01-12T09:55:32.162Z,98926.01
2018-01-12T09:56:35.210Z,98920.56
2018-01-12T09:57:38.151Z,98921.23
2018-01-12T09:58:41.159Z,98925.83
2018-01-12T09:59:44.641Z,98922.73
2018-01-12T10:00:47.653Z,98923.37
2018-01-12T10:01:50.612Z,98918.65
2018-01-12T10:02:53.637Z,98916.88
2018-01-12T10:03:56.708Z,98920.61
2018-01-12T10:04:59.653Z,98925.80
2018-01-12T10:06:02.998Z,98918.77
2018-01-12T10:07:06.064Z,98918.75
2018-01-12T10:08:09.835Z,98914.83
2018-01-12T10:09:12.837Z,98923.08
2018-01-12T10:10:21.184Z,98921.14
2018-01-12T10:11:24.705Z,98915.98
2018-01-12T10:12:30.717Z,98916.01
2018-01-12T10:13:34.270Z,98914.88
2018-01-12T10:14:41.728Z,98913.80
2018-01-12T10:15:45.742Z,98912.05
2018-01-12T10:16:55.662Z,98915.19
2018-01-12T10:18:03.848Z,98919.00
2018-01-12T10:19:11.860Z,98916.86
2018-01-12T10:20:19.157Z,98920.09
2018-01-12T10:21:24.100Z,98923.53
2018-01-12T10:22:31.008Z,98923.74
2018-01-12T10:23:47.405Z,98923.30
2018-01-12T10:24:55.577Z,98921.72
2018-01-12T10:26:00.982Z,98926.83
2018-01-12T10:27:07.353Z,98927.13
2018-01-12T10:28:17.046Z,98925.73
2018-01-12T10:29:28.292Z,98928.92
2018-01-12T10:30:33.464Z,98928.58
2018-01-12T10:31:40.612Z,98928.38
2018-01-12T10:32:53.786Z,98925.16
2018-01-12T10:33:58.801Z,98928.11
2018-01-12T10:35:05.950Z,98927.48
2018-01-12T10:36:14.796Z,98928.83
2018-01-12T10:37:20.190Z,98927.88
2018-01-12T10:38:26.467Z,98927.85
2018-01-12T10:39:32.709Z,98920.53
2018-01-12T10:40:38.244Z,98924.02
2018-01-12T10:43:02.762Z,98925.98
2018-01-12T10:44:14.241Z,98930.90
2018-01-12T10:45:19.740Z,98928.64
2018-01-12T10:47:44.101Z,98928.77
2018-01-12T10:50:01.305Z,98930.85
2018-01-12T10:51:05.193Z,98933.70
2018-01-12T10:52:08.296Z,98930.56
2018-01-12T10:53:11.234Z,98927.58
2018-01-12T10:54:14.199Z,98927.69
2018-01-12T10:55:17.129Z,98925.52
2018-01-12T10:56:22.512Z,98926.58
2018-01-12T10:57:25.807Z,98924.47
2018-01-12T10:58:28.757Z,98919.63
2018-01-12T10:59:31.966Z,98928.06
2018-01-12T11:00:34.949Z,98930.02
2018-01-12T11:01:37.962Z,98927.31
2018-01-12T11:02:40.889Z,98927.06
2018-01-12T11:03:44.331Z,98927.02
2018-01-12T11:04:47.380Z,98928.61
2018-01-12T11:05:53.014Z,98932.04
2018-01-12T11:06:58.619Z,98921.34
2018-01-12T11:08:01.753Z,98928.06
2018-01-12T11:09:04.838Z,98924.98
2018-01-12T11:10:08.510Z,98923.23
2018-01-12T11:11:12.119Z,98921.68
2018-01-12T11:12:15.615Z,98923.23
2018-01-12T11:13:18.736Z,98919.73
2018-01-12T11:14:22.007Z,98923.23
2018-01-12T11:15:27.542Z,98916.41
2018-01-12T11:16:33.950Z,98924.44
2018-01-12T11:17:39.038Z,98921.09
2018-01-12T11:18:41.999Z,98922.80
2018-01-12T11:19:44.882Z,98923.61
2018-01-12T11:20:47.820Z,98928.30
2018-01-12T11:21:51.024Z,98923.99
2018-01-12T11:22:54.410Z,98923.00
2018-01-12T11:23:57.408Z,98918.95
2018-01-12T11:25:02.831Z,98929.00
2018-01-12T11:26:06.747Z,98925.91
2018-01-12T11:27:09.719Z,98916.59
2018-01-12T11:28:13.679Z,98917.59
2018-01-12T11:29:22.660Z,98913.31
2018-01-12T11:30:26.359Z,98908.63
2018-01-12T11:31:29.480Z,98905.91
2018-01-12T11:32:32.415Z,98914.84
2018-01-12T11:33:35.493Z,98905.53
2018-01-12T11:34:38.865Z,98902.36
2018-01-12T11:35:42.273Z,98908.01
2018-01-12T11:36:45.225Z,98903.14
2018-01-12T11:37:49.007Z,98904.53
2018-01-12T11:38:52.088Z,98900.05
2018-01-12T11:39:55.824Z,98902.19
2018-01-12T11:40:59.246Z,98902.41
2018-01-12T11:42:02.470Z,98901.22
2018-01-12T11:43:05.415Z,98895.57
2018-01-12T11:44:08.462Z,98900.83
2018-01-12T11:45:11.480Z,98901.05
2018-01-12T11:46:14.489Z,98901.58
2018-01-12T11:47:17.989Z,98896.87
2018-01-12T11:48:21.494Z,98893.06
2018-01-12T11:49:24.328Z,98892.67
2018-01-12T11:50:27.235Z,98891.61
2018-01-12T11:51:30.427Z,98896.09
2018-01-12T11:52:33.438Z,98891.55
2018-01-12T11:53:36.525Z,98894.13
2018-01-12T11:54:40.272Z,98891.30
2018-01-12T11:55:43.333Z,98889.56
2018-01-12T11:56:46.196Z,98891.64
2018-01-12T11:57:49.217Z,98883.71
2018-01-12T11:58:52.174Z,98886.84
2018-01-12T11:59:55.090Z,98885.80
2018-01-12T12:00:58.220Z,98878.79
2018-01-12T12:02:01.201Z,98879.04
2018-01-12T12:03:04.134Z,98881.18
2018-01-12T12:04:07.129Z,98881.95
2018-01-12T12:05:10.115Z,98877.90
2018-01-12T12:06:13.615Z,98878.67
2018-01-12T12:07:16.614Z,98881.55
2018-01-12T12:08:20.039Z,98881.40
2018-01-12T12:09:22.963Z,98885.05
2018-01-12T12:10:26.045Z,98881.16
2018-01-12T12:11:29.667Z,98882.49
2018-01-12T12:12:33.174Z,98878.66
2018-01-12T12:13:36.129Z,98883.71
2018-01-12T12:14:39.153Z,98882.36
2018-01-12T12:15:42.129Z,98881.36
2018-01-12T12:16:45.093Z,98875.05
2018-01-12T12:17:48.070Z,98870.77
2018-01-12T12:18:51.363Z,98875.83
2018-01-12T12:19:54.213Z,98875.23
2018-01-12T12:20:57.179Z,98874.85
2018-01-12T12:22:00.055Z,98873.87
2018-01-12T12:23:03.071Z,98874.22
2018-01-12T12:24:06.099Z,98871.90
2018-01-12T12:25:09.412Z,98873.06
2018-01-12T12:26:13.176Z,98872.70
2018-01-12T12:27:17.780Z,98875.87